Time;durP1;ratioP1;P1;durP2;ratioP2;P2;SDS_P1;SDS_P2;PMS_P1;PMS_P2;Temp;Humidity;BMP_temperature;BMP_pressure;BME280_temperature;BME280_humidity;BME280_pressure;Samples;Min_cycle;Max_cycle;Signal;HPM_P1;HPM_P2
2022/03/09 00:01:45;;;;;;;17.48;10.43;;;10.70;41.80;;;;;;5120363;28;20019;-66
2022/03/09 00:04:11;;;;;;;18.02;10.77;;;10.70;41.70;;;;;;5120299;28;20091;-66
2022/03/09 00:06:37;;;;;;;17.25;10.68;;;10.70;41.60;;;;;;5120319;28;20031;-66
2022/03/09 00:09:02;;;;;;;18.77;10.07;;;10.70;41.50;;;;;;5120258;28;20019;-66
2022/03/09 00:11:28;;;;;;;15.48;9.25;;;10.70;41.80;;;;;;5120271;28;20307;-67
2022/03/09 00:13:54;;;;;;;18.42;10.07;;;10.70;41.70;;;;;;5123325;28;20244;-66
2022/03/09 00:16:20;;;;;;;17.33;9.60;;;10.70;41.70;;;;;;5124212;28;20031;-66
2022/03/09 00:18:45;;;;;;;16.92;9.82;;;10.70;41.70;;;;;;5124083;28;20035;-66
2022/03/09 00:21:11;;;;;;;16.10;9.90;;;10.70;41.60;;;;;;5124046;28;20224;-68
2022/03/09 00:23:37;;;;;;;16.98;10.18;;;10.70;41.80;;;;;;5124010;28;20024;-67
2022/03/09 00:26:03;;;;;;;14.98;9.63;;;10.70;41.70;;;;;;5123939;28;20212;-66
2022/03/09 00:28:29;;;;;;;17.63;10.25;;;10.60;41.40;;;;;;5123941;28;20023;-67
2022/03/09 00:30:55;;;;;;;17.15;9.77;;;10.70;41.60;;;;;;5123831;28;20029;-66
2022/03/09 00:33:21;;;;;;;20.75;10.20;;;10.60;41.60;;;;;;5123828;28;20022;-66
2022/03/09 00:35:46;;;;;;;15.30;9.75;;;10.60;41.70;;;;;;5123768;28;20020;-67
2022/03/09 00:38:12;;;;;;;18.05;9.60;;;10.60;41.70;;;;;;5123761;28;20016;-67
2022/03/09 00:40:39;;;;;;;16.05;10.13;;;10.60;41.70;;;;;;5123548;28;20044;-67
2022/03/09 00:43:04;;;;;;;13.68;9.07;;;10.60;41.60;;;;;;5123583;28;20027;-67
2022/03/09 00:45:30;;;;;;;17.33;9.85;;;10.60;41.70;;;;;;5123716;28;20305;-65
2022/03/09 00:47:56;;;;;;;17.02;10.02;;;10.60;41.50;;;;;;5123570;28;20050;-67
2022/03/09 00:50:21;;;;;;;20.02;10.30;;;10.60;41.70;;;;;;5123543;28;20212;-67
2022/03/09 00:52:47;;;;;;;18.00;9.57;;;10.60;41.60;;;;;;5123545;28;20188;-66
2022/03/09 00:55:13;;;;;;;16.73;9.50;;;10.60;41.70;;;;;;5123406;28;20015;-67
2022/03/09 00:57:39;;;;;;;16.73;9.55;;;10.60;41.60;;;;;;5122201;28;20257;-67
2022/03/09 01:00:07;;;;;;;16.38;9.93;;;10.60;41.70;;;;;;5123270;28;20028;-66
2022/03/09 01:02:32;;;;;;;18.38;10.05;;;10.60;41.60;;;;;;5123290;28;20016;-66
2022/03/09 01:04:58;;;;;;;14.60;8.52;;;10.60;41.60;;;;;;5123284;28;20133;-66
2022/03/09 01:07:24;;;;;;;16.45;9.60;;;10.60;41.70;;;;;;5123135;28;20034;-68
2022/03/09 01:09:49;;;;;;;15.02;10.07;;;10.60;41.80;;;;;;5123196;28;20036;-65
2022/03/09 01:12:15;;;;;;;16.75;9.75;;;10.50;41.60;;;;;;5123076;28;20035;-66
2022/03/09 01:14:41;;;;;;;13.77;9.20;;;10.50;41.50;;;;;;5123066;28;20053;-67
2022/03/09 01:17:06;;;;;;;16.20;9.38;;;10.50;41.60;;;;;;5123003;28;20024;-67
2022/03/09 01:19:32;;;;;;;18.02;10.00;;;10.50;41.70;;;;;;5122882;28;20500;-67
2022/03/09 01:21:58;;;;;;;16.88;9.45;;;10.50;41.50;;;;;;5122990;28;20026;-67
2022/03/09 01:24:23;;;;;;;17.25;9.43;;;10.50;41.60;;;;;;5122611;28;20023;-67
2022/03/09 01:26:49;;;;;;;15.68;9.95;;;10.50;41.60;;;;;;5122866;28;20086;-67
2022/03/09 01:29:15;;;;;;;14.48;8.80;;;10.50;41.70;;;;;;5122672;28;20038;-67
2022/03/09 01:31:40;;;;;;;18.20;10.07;;;10.50;41.80;;;;;;5122763;28;20034;-66
2022/03/09 01:34:06;;;;;;;17.90;10.30;;;10.50;41.60;;;;;;5122676;28;20334;-67
2022/03/09 01:36:32;;;;;;;15.77;10.07;;;10.50;41.50;;;;;;5122649;28;20043;-67
2022/03/09 01:38:57;;;;;;;17.42;10.05;;;10.50;41.40;;;;;;5122379;28;20044;-68
2022/03/09 01:41:23;;;;;;;16.27;9.93;;;10.50;41.70;;;;;;5122501;28;20024;-67
2022/03/09 01:44:13;;;;;;;16.10;9.68;;;10.40;41.70;;;;;;5122495;28;20087;-66
2022/03/09 01:46:40;;;;;;;17.40;10.30;;;10.40;41.60;;;;;;5122547;28;20043;-68
2022/03/09 01:49:07;;;;;;;15.13;8.98;;;10.40;41.50;;;;;;5122399;28;20019;-68
2022/03/09 01:51:36;;;;;;;13.38;9.13;;;10.40;41.70;;;;;;5122334;28;20016;-66
2022/03/09 01:54:04;;;;;;;15.88;9.70;;;10.40;41.50;;;;;;5122280;28;20023;-67
2022/03/09 01:56:30;;;;;;;16.38;9.75;;;10.50;41.70;;;;;;5122274;28;20262;-67
2022/03/09 01:58:56;;;;;;;15.85;9.98;;;10.50;41.70;;;;;;5122086;28;20072;-67
2022/03/09 02:01:22;;;;;;;15.82;8.95;;;10.40;41.60;;;;;;5122173;28;20350;-66
2022/03/09 02:03:48;;;;;;;12.73;8.65;;;10.40;41.70;;;;;;5122147;28;20024;-67
2022/03/09 02:06:13;;;;;;;16.02;9.10;;;10.40;41.80;;;;;;5122026;28;20015;-66
2022/03/09 02:11:25;;;;;;;16.27;10.45;;;10.40;41.70;;;;;;5121958;28;20085;-68
2022/03/09 02:13:50;;;;;;;18.88;10.48;;;10.40;41.80;;;;;;5121845;28;20281;-66
2022/03/09 02:16:16;;;;;;;21.45;10.88;;;10.40;41.70;;;;;;5121858;28;20023;-69
2022/03/09 02:18:42;;;;;;;15.10;9.68;;;10.40;41.80;;;;;;5121806;28;20024;-67
2022/03/09 02:21:11;;;;;;;16.50;9.75;;;10.40;41.80;;;;;;5121795;28;20019;-67
2022/03/09 02:23:36;;;;;;;17.50;10.60;;;10.40;41.90;;;;;;5121788;28;20043;-67
2022/03/09 02:26:02;;;;;;;19.08;10.20;;;10.40;41.70;;;;;;5121645;28;20027;-66
2022/03/09 02:28:28;;;;;;;18.65;9.82;;;10.30;41.60;;;;;;5121623;28;20145;-68
2022/03/09 02:30:57;;;;;;;19.48;10.63;;;10.40;41.60;;;;;;5121536;28;20034;-67
2022/03/09 02:33:23;;;;;;;15.88;10.55;;;10.30;41.70;;;;;;5121735;28;20068;-67
2022/03/09 02:35:51;;;;;;;14.88;9.57;;;10.30;41.70;;;;;;5120897;28;20020;-67
2022/03/09 02:38:17;;;;;;;19.23;9.63;;;10.30;41.90;;;;;;5121424;28;20199;-66
2022/03/09 02:40:42;;;;;;;17.13;9.60;;;10.30;41.90;;;;;;5121255;28;20039;-66
2022/03/09 02:43:08;;;;;;;16.65;10.32;;;10.30;41.90;;;;;;5121358;28;20024;-67
2022/03/09 02:45:35;;;;;;;14.82;9.55;;;10.30;41.80;;;;;;5120980;28;20351;-68
2022/03/09 02:48:01;;;;;;;20.45;10.68;;;10.30;41.70;;;;;;5121315;28;20027;-67
2022/03/09 02:50:27;;;;;;;16.45;10.02;;;10.30;41.90;;;;;;5121229;28;20219;-66
2022/03/09 02:52:52;;;;;;;18.00;9.68;;;10.30;42.00;;;;;;5121196;28;20342;-67
2022/03/09 02:55:18;;;;;;;15.82;8.85;;;10.30;41.90;;;;;;5121176;28;20051;-67
2022/03/09 02:57:44;;;;;;;18.20;10.32;;;10.30;42.10;;;;;;5121323;28;20255;-66
2022/03/09 03:00:11;;;;;;;16.58;9.40;;;10.30;42.00;;;;;;5121133;28;20087;-66
2022/03/09 03:02:38;;;;;;;17.13;9.75;;;10.30;42.10;;;;;;5121153;28;20099;-67
2022/03/09 03:05:08;;;;;;;14.27;8.93;;;10.30;42.00;;;;;;5120949;28;20352;-67
2022/03/09 03:07:34;;;;;;;17.13;9.52;;;10.30;42.00;;;;;;5120931;28;20015;-67
2022/03/09 03:10:00;;;;;;;15.43;9.75;;;10.30;42.10;;;;;;5121009;28;20134;-67
2022/03/09 03:12:25;;;;;;;17.25;11.20;;;10.30;42.10;;;;;;5120954;28;20207;-67
2022/03/09 03:14:51;;;;;;;16.98;9.98;;;10.30;42.00;;;;;;5120860;28;20035;-67
2022/03/09 03:17:17;;;;;;;19.17;10.18;;;10.30;42.00;;;;;;5120819;28;20024;-68
2022/03/09 03:19:42;;;;;;;17.40;10.63;;;10.30;42.00;;;;;;5120774;28;20061;-69
2022/03/09 03:22:08;;;;;;;16.70;10.20;;;10.30;42.10;;;;;;5120869;28;20023;-68
2022/03/09 03:24:34;;;;;;;20.20;10.32;;;10.30;42.30;;;;;;5120701;28;20024;-67
2022/03/09 03:27:00;;;;;;;15.90;9.55;;;10.30;42.40;;;;;;5120815;28;20035;-67
2022/03/09 03:29:25;;;;;;;13.63;9.00;;;10.30;42.20;;;;;;5120888;28;20069;-68
2022/03/09 03:31:51;;;;;;;17.27;9.40;;;10.30;42.30;;;;;;5120711;28;20035;-67
2022/03/09 03:34:17;;;;;;;21.40;10.20;;;10.30;42.10;;;;;;5120589;28;20281;-67
2022/03/09 03:36:43;;;;;;;15.23;9.55;;;10.30;42.30;;;;;;5120636;28;20019;-66
2022/03/09 03:39:08;;;;;;;13.07;9.05;;;10.30;42.20;;;;;;5120369;28;20050;-67
2022/03/09 03:41:34;;;;;;;14.00;9.02;;;10.30;42.30;;;;;;5120595;28;20366;-67
2022/03/09 03:44:00;;;;;;;14.73;8.93;;;10.30;42.30;;;;;;5119353;28;20024;-66
2022/03/09 03:46:26;;;;;;;16.05;9.00;;;10.30;42.30;;;;;;5120590;28;20219;-67
2022/03/09 03:48:51;;;;;;;14.77;8.90;;;10.30;42.30;;;;;;5123833;28;20055;-67
2022/03/09 03:51:17;;;;;;;14.93;9.35;;;10.30;42.30;;;;;;5124742;28;20019;-67
2022/03/09 03:53:43;;;;;;;16.70;9.25;;;10.20;42.10;;;;;;5124574;28;20073;-66
2022/03/09 03:56:08;;;;;;;15.98;9.82;;;10.20;42.30;;;;;;5124637;28;20200;-67
2022/03/09 03:58:34;;;;;;;17.75;9.00;;;10.20;42.50;;;;;;5124462;28;20033;-65
2022/03/09 04:01:00;;;;;;;15.00;9.57;;;10.20;42.30;;;;;;5124914;28;20212;-67
2022/03/09 04:03:25;;;;;;;16.75;8.82;;;10.20;42.30;;;;;;5124514;28;20162;-67
2022/03/09 04:05:51;;;;;;;14.40;9.07;;;10.20;42.40;;;;;;5124427;28;20332;-67
2022/03/09 04:08:17;;;;;;;17.50;9.73;;;10.20;42.30;;;;;;5124377;28;20193;-67
2022/03/09 04:10:42;;;;;;;17.00;10.00;;;10.20;42.20;;;;;;5124597;28;20290;-67
2022/03/09 04:13:08;;;;;;;16.30;9.13;;;10.20;42.30;;;;;;5124320;28;20049;-69
2022/03/09 04:15:34;;;;;;;14.27;9.18;;;10.20;42.40;;;;;;5124290;28;20090;-69
2022/03/09 04:18:00;;;;;;;15.27;9.98;;;10.20;42.20;;;;;;5124304;28;20364;-67
2022/03/09 04:20:26;;;;;;;15.52;9.20;;;10.20;42.50;;;;;;5124139;28;20034;-68
2022/03/09 04:22:51;;;;;;;15.23;8.88;;;10.20;42.40;;;;;;5124083;28;20015;-67
2022/03/09 04:25:17;;;;;;;14.60;9.00;;;10.20;42.40;;;;;;5124078;28;20038;-67
2022/03/09 04:27:46;;;;;;;14.23;9.27;;;10.20;42.50;;;;;;5123999;28;20012;-67
2022/03/09 04:30:12;;;;;;;14.88;9.07;;;10.20;42.60;;;;;;5124009;28;20031;-68
2022/03/09 04:32:37;;;;;;;17.13;9.45;;;10.20;42.60;;;;;;5124008;27;20023;-67
2022/03/09 04:35:05;;;;;;;14.95;9.20;;;10.20;42.40;;;;;;5123921;28;20045;-67
2022/03/09 04:37:31;;;;;;;14.50;9.50;;;10.20;42.60;;;;;;5124053;28;20073;-66
2022/03/09 04:40:01;;;;;;;16.45;9.95;;;10.20;42.50;;;;;;5123602;28;20047;-66
2022/03/09 04:42:27;;;;;;;16.05;9.35;;;10.20;42.60;;;;;;5124078;28;20058;-66
2022/03/09 04:44:53;;;;;;;15.00;9.38;;;10.20;42.50;;;;;;5123738;28;20020;-67
2022/03/09 04:47:20;;;;;;;17.15;10.10;;;10.20;42.40;;;;;;5123685;28;20019;-66
2022/03/09 04:49:46;;;;;;;16.67;9.32;;;10.20;42.50;;;;;;5123648;28;20238;-67
2022/03/09 04:52:11;;;;;;;15.88;9.88;;;10.20;42.70;;;;;;5123524;28;20023;-67
2022/03/09 04:54:37;;;;;;;19.67;10.48;;;10.20;42.60;;;;;;5123517;28;20023;-67
2022/03/09 04:57:03;;;;;;;15.98;9.25;;;10.20;42.60;;;;;;5123341;28;20038;-67
2022/03/09 04:59:29;;;;;;;16.17;10.00;;;10.20;42.60;;;;;;5122704;28;20031;-67
2022/03/09 05:01:55;;;;;;;16.33;9.55;;;10.20;42.50;;;;;;5123333;28;20038;-67
2022/03/09 05:04:21;;;;;;;14.38;8.98;;;10.20;42.60;;;;;;5123252;28;20012;-66
2022/03/09 05:06:47;;;;;;;14.65;8.75;;;10.20;42.60;;;;;;5123245;28;20019;-67
2022/03/09 05:09:13;;;;;;;14.93;9.75;;;10.20;42.50;;;;;;5123158;28;20050;-66
2022/03/09 05:11:38;;;;;;;15.52;10.00;;;10.20;42.50;;;;;;5123151;28;20015;-66
2022/03/09 05:14:04;;;;;;;14.63;9.38;;;10.20;42.50;;;;;;5123123;28;20065;-67
2022/03/09 05:16:30;;;;;;;16.80;9.50;;;10.10;42.60;;;;;;5123113;28;20031;-66
2022/03/09 05:18:56;;;;;;;19.23;10.93;;;10.20;42.70;;;;;;5122965;28;20015;-68
2022/03/09 05:21:21;;;;;;;15.70;9.27;;;10.10;42.60;;;;;;5122966;28;20024;-67
2022/03/09 05:23:47;;;;;;;19.48;9.93;;;10.10;42.60;;;;;;5122936;28;20064;-66
2022/03/09 05:26:13;;;;;;;16.00;9.45;;;10.20;42.70;;;;;;5122795;28;20060;-66
2022/03/09 05:28:38;;;;;;;16.92;10.32;;;10.20;42.70;;;;;;5122891;28;20019;-66
2022/03/09 05:31:04;;;;;;;16.08;9.95;;;10.10;42.50;;;;;;5122674;28;20031;-66
2022/03/09 05:33:30;;;;;;;18.52;9.90;;;10.20;42.70;;;;;;5122822;28;20165;-67
2022/03/09 05:35:56;;;;;;;14.70;9.45;;;10.10;42.70;;;;;;5122715;28;20011;-67
2022/03/09 05:38:21;;;;;;;15.27;9.70;;;10.10;42.50;;;;;;5122669;28;20024;-67
2022/03/09 05:40:47;;;;;;;16.02;9.90;;;10.10;43.30;;;;;;5122466;28;20093;-66
2022/03/09 05:43:13;;;;;;;15.82;9.57;;;10.10;42.60;;;;;;5122503;28;20027;-66
2022/03/09 05:45:38;;;;;;;15.85;9.60;;;10.10;42.60;;;;;;5122514;28;20255;-67
2022/03/09 05:48:04;;;;;;;16.40;10.20;;;10.10;42.60;;;;;;5122419;28;20030;-66
2022/03/09 05:50:30;;;;;;;14.32;9.50;;;10.20;42.80;;;;;;5122473;27;20035;-66
2022/03/09 05:52:56;;;;;;;16.13;9.93;;;10.10;42.60;;;;;;5122344;28;20022;-67
2022/03/09 05:55:22;;;;;;;17.88;10.43;;;10.10;42.60;;;;;;5122337;28;20028;-67
2022/03/09 05:57:48;;;;;;;15.18;9.95;;;10.10;42.50;;;;;;5122309;28;20020;-67
2022/03/09 06:00:15;;;;;;;18.02;10.77;;;10.10;42.70;;;;;;5122129;28;20023;-67
2022/03/09 06:02:40;;;;;;;16.80;10.48;;;10.20;42.70;;;;;;5122185;28;20197;-65
2022/03/09 06:05:07;;;;;;;17.00;10.80;;;10.20;42.70;;;;;;5122134;28;20073;-67
2022/03/09 06:07:33;;;;;;;20.50;8.88;;;10.20;42.70;;;;;;5122051;28;20037;-67
2022/03/09 06:09:59;;;;;;;15.90;10.02;;;10.10;42.70;;;;;;5121167;28;20032;-66
2022/03/09 06:12:25;;;;;;;16.67;10.00;;;10.20;42.80;;;;;;5122512;28;20027;-66
2022/03/09 06:14:50;;;;;;;18.10;10.52;;;10.20;42.60;;;;;;5122040;28;20050;-66
2022/03/09 06:17:16;;;;;;;14.43;8.93;;;10.20;42.60;;;;;;5121882;28;20028;-68
2022/03/09 06:19:42;;;;;;;14.90;10.13;;;10.20;42.60;;;;;;5121829;28;20020;-66
2022/03/09 06:22:08;;;;;;;17.65;10.35;;;10.20;42.60;;;;;;5121875;28;20020;-67
2022/03/09 06:24:34;;;;;;;16.33;9.77;;;10.20;42.50;;;;;;5121749;28;20326;-67
2022/03/09 06:26:59;;;;;;;16.08;10.07;;;10.20;42.50;;;;;;5120502;28;20019;-67
2022/03/09 06:29:25;;;;;;;14.30;8.95;;;10.20;42.60;;;;;;5121651;28;20031;-67
2022/03/09 06:31:51;;;;;;;13.98;9.55;;;10.20;42.50;;;;;;5121681;28;20023;-68
2022/03/09 06:34:17;;;;;;;16.25;10.70;;;10.20;42.40;;;;;;5121628;28;20054;-68
2022/03/09 06:36:44;;;;;;;17.50;10.70;;;10.20;42.50;;;;;;5121548;28;20027;-66
2022/03/09 06:39:12;;;;;;;17.83;10.32;;;10.20;42.50;;;;;;5121355;28;20093;-67
2022/03/09 06:41:43;;;;;;;14.25;8.93;;;10.20;42.30;;;;;;5121512;28;20016;-67
2022/03/09 06:44:09;;;;;;;17.85;10.63;;;10.20;42.20;;;;;;5121515;28;20019;-67
2022/03/09 06:46:35;;;;;;;16.52;10.23;;;10.20;42.50;;;;;;5121330;28;20027;-67
2022/03/09 06:49:01;;;;;;;16.63;10.43;;;10.30;42.30;;;;;;5121329;28;20082;-66
2022/03/09 06:51:26;;;;;;;15.90;9.80;;;10.30;42.50;;;;;;5121320;28;20039;-67
2022/03/09 06:53:52;;;;;;;18.05;11.18;;;10.30;42.50;;;;;;5121247;28;20034;-67
2022/03/09 06:56:18;;;;;;;18.75;11.05;;;10.30;42.60;;;;;;5121322;28;20015;-67
2022/03/09 06:58:45;;;;;;;17.50;10.70;;;10.30;43.10;;;;;;5121021;28;20033;-67
2022/03/09 07:01:11;;;;;;;16.50;9.98;;;10.30;42.60;;;;;;5121175;28;20038;-67
2022/03/09 07:03:37;;;;;;;17.52;10.65;;;10.30;42.60;;;;;;5121033;28;20023;-66
2022/03/09 07:06:02;;;;;;;18.20;10.35;;;10.30;42.60;;;;;;5121081;28;20026;-67
2022/03/09 07:08:28;;;;;;;17.42;11.15;;;10.30;42.60;;;;;;5121053;28;20246;-67
2022/03/09 07:10:54;;;;;;;18.42;11.48;;;10.30;42.50;;;;;;5120997;28;20391;-67
2022/03/09 07:13:20;;;;;;;16.35;9.73;;;10.30;42.50;;;;;;5120996;28;20228;-66
2022/03/09 07:15:46;;;;;;;17.17;10.18;;;10.30;42.60;;;;;;5120924;28;20013;-68
2022/03/09 07:18:12;;;;;;;16.90;10.07;;;10.30;42.30;;;;;;5120905;28;20043;-68
2022/03/09 07:20:40;;;;;;;17.33;11.50;;;10.40;42.60;;;;;;5120841;28;20038;-67
2022/03/09 07:23:06;;;;;;;17.30;10.55;;;10.30;42.60;;;;;;5120627;28;20016;-66
2022/03/09 07:25:32;;;;;;;18.58;10.60;;;10.40;42.40;;;;;;5119555;28;20030;-67
2022/03/09 07:27:57;;;;;;;17.88;10.98;;;10.30;42.50;;;;;;5120731;28;20023;-67
2022/03/09 07:30:23;;;;;;;14.93;10.20;;;10.30;42.40;;;;;;5120689;28;20026;-68
2022/03/09 07:32:49;;;;;;;18.38;10.73;;;10.40;42.50;;;;;;5120708;28;20340;-66
2022/03/09 07:35:14;;;;;;;19.27;11.35;;;10.40;42.60;;;;;;5120647;28;20032;-66
2022/03/09 07:37:40;;;;;;;16.50;11.05;;;10.40;42.70;;;;;;5120720;28;20343;-66
2022/03/09 07:40:07;;;;;;;18.00;10.25;;;10.40;42.50;;;;;;5120416;28;20216;-67
2022/03/09 07:42:32;;;;;;;17.20;10.70;;;10.40;42.50;;;;;;5119390;28;20058;-67
2022/03/09 07:44:58;;;;;;;21.55;11.30;;;10.40;42.50;;;;;;5120616;28;20016;-68
2022/03/09 07:47:24;;;;;;;18.17;11.00;;;10.40;42.80;;;;;;5120575;28;20023;-66
2022/03/09 07:49:50;;;;;;;17.10;10.50;;;10.40;42.60;;;;;;5120632;28;20034;-67
2022/03/09 07:52:15;;;;;;;16.52;10.50;;;10.40;42.70;;;;;;5120479;28;20019;-67
2022/03/09 07:54:41;;;;;;;15.52;10.38;;;10.40;42.80;;;;;;5120560;28;20034;-66
2022/03/09 07:57:07;;;;;;;20.77;10.95;;;10.50;42.90;;;;;;5120438;28;20297;-66
2022/03/09 07:59:32;;;;;;;18.27;11.32;;;10.40;42.70;;;;;;5120405;28;20026;-67
2022/03/09 08:01:58;;;;;;;18.58;11.43;;;10.40;42.60;;;;;;5120473;28;20026;-68
2022/03/09 08:04:25;;;;;;;17.50;10.68;;;10.40;42.70;;;;;;5120447;28;20027;-67
2022/03/09 08:06:51;;;;;;;16.95;10.95;;;10.50;42.80;;;;;;5120441;28;20478;-66
2022/03/09 08:09:18;;;;;;;19.85;11.30;;;10.40;42.70;;;;;;5120442;28;20096;-66
2022/03/09 08:11:44;;;;;;;16.95;11.07;;;10.50;42.70;;;;;;5120322;28;20037;-68
2022/03/09 08:14:11;;;;;;;18.10;10.77;;;10.50;42.70;;;;;;5120474;28;20358;-67
2022/03/09 08:16:37;;;;;;;16.25;10.70;;;10.50;42.60;;;;;;5120416;28;20395;-68
2022/03/09 08:19:03;;;;;;;16.17;10.77;;;10.50;42.80;;;;;;5120219;28;20023;-68
2022/03/09 08:21:29;;;;;;;18.92;11.73;;;10.50;42.80;;;;;;5120361;28;20030;-69
2022/03/09 08:23:54;;;;;;;17.08;10.65;;;10.50;42.80;;;;;;5120249;28;20047;-66
2022/03/09 08:26:20;;;;;;;17.73;10.85;;;10.60;42.70;;;;;;5120283;28;20396;-67
2022/03/09 08:28:46;;;;;;;19.05;11.50;;;10.70;42.80;;;;;;5120182;28;20015;-67
2022/03/09 08:31:11;;;;;;;16.65;10.75;;;10.70;42.80;;;;;;5118904;28;20215;-67
2022/03/09 08:33:38;;;;;;;17.92;10.90;;;10.70;42.70;;;;;;5121236;28;20028;-68
2022/03/09 08:36:04;;;;;;;20.67;12.25;;;10.70;42.60;;;;;;5123979;28;20026;-68
2022/03/09 08:38:29;;;;;;;17.30;10.93;;;10.70;42.50;;;;;;5123704;28;20266;-68
2022/03/09 08:40:55;;;;;;;17.95;10.85;;;10.80;42.60;;;;;;5123704;28;20119;-66
2022/03/09 08:43:21;;;;;;;20.30;10.52;;;10.80;42.70;;;;;;5123850;28;20019;-68
2022/03/09 08:45:47;;;;;;;17.88;10.32;;;10.80;42.60;;;;;;5123823;28;20023;-67
2022/03/09 08:48:13;;;;;;;17.52;11.13;;;10.90;42.70;;;;;;5123600;28;20039;-67
2022/03/09 08:50:39;;;;;;;16.20;10.93;;;10.90;42.60;;;;;;5123656;28;20031;-67
2022/03/09 08:53:05;;;;;;;17.75;11.73;;;10.90;42.60;;;;;;5123585;28;20027;-68
2022/03/09 08:55:30;;;;;;;18.10;10.93;;;10.90;42.50;;;;;;5123618;28;20035;-68
2022/03/09 08:57:56;;;;;;;17.30;11.35;;;10.90;42.40;;;;;;5123530;28;20337;-68
2022/03/09 09:00:24;;;;;;;17.42;10.85;;;11.00;42.60;;;;;;5123491;28;20323;-67
2022/03/09 09:02:50;;;;;;;17.63;11.32;;;10.90;42.50;;;;;;5123515;28;20023;-68
2022/03/09 09:05:16;;;;;;;17.33;11.27;;;11.00;42.60;;;;;;5123406;28;20096;-68
2022/03/09 09:07:41;;;;;;;15.07;9.95;;;11.00;42.60;;;;;;5123407;28;20024;-68
2022/03/09 09:10:07;;;;;;;13.13;9.48;;;11.00;42.50;;;;;;5123316;28;20269;-68
2022/03/09 09:12:33;;;;;;;15.48;10.60;;;11.10;42.60;;;;;;5123244;28;20015;-68
2022/03/09 09:14:59;;;;;;;13.82;8.90;;;11.20;42.40;;;;;;5123231;28;20038;-68
2022/03/09 09:17:25;;;;;;;18.75;10.82;;;11.20;42.40;;;;;;5123149;28;20282;-67
2022/03/09 09:19:50;;;;;;;16.02;10.80;;;11.20;43.00;;;;;;5123152;28;20034;-67
2022/03/09 09:22:16;;;;;;;18.60;10.38;;;11.20;42.30;;;;;;5123123;28;20023;-68
2022/03/09 09:24:42;;;;;;;17.45;10.50;;;11.20;42.30;;;;;;5123066;28;20032;-67
2022/03/09 09:27:07;;;;;;;16.30;9.95;;;11.20;42.20;;;;;;5123015;28;20011;-68
2022/03/09 09:29:33;;;;;;;14.48;9.48;;;11.30;42.30;;;;;;5122841;28;20065;-68
2022/03/09 09:31:59;;;;;;;14.13;9.05;;;11.30;42.30;;;;;;5122909;28;20323;-68
2022/03/09 09:34:25;;;;;;;14.60;9.95;;;11.30;42.40;;;;;;5122748;28;20091;-67
2022/03/09 09:36:52;;;;;;;16.20;10.25;;;11.20;42.30;;;;;;5122871;28;20075;-67
2022/03/09 09:39:19;;;;;;;13.98;9.38;;;11.30;42.40;;;;;;5122576;28;20031;-67
2022/03/09 09:41:51;;;;;;;19.23;11.32;;;11.30;42.30;;;;;;5122680;28;20027;-67
2022/03/09 09:44:23;;;;;;;18.98;10.88;;;11.30;42.30;;;;;;5122572;28;20065;-66
2022/03/09 09:46:50;;;;;;;14.98;9.70;;;11.30;42.20;;;;;;5122703;28;20118;-67
2022/03/09 09:49:16;;;;;;;15.30;10.05;;;11.30;42.40;;;;;;5122646;27;20208;-67
2022/03/09 09:51:44;;;;;;;17.00;10.45;;;11.40;42.30;;;;;;5122531;28;20038;-67
2022/03/09 09:54:10;;;;;;;19.45;10.30;;;11.40;42.30;;;;;;5122573;28;20510;-67
2022/03/09 09:56:40;;;;;;;15.90;9.77;;;11.40;42.30;;;;;;5122415;28;20367;-67
2022/03/09 09:59:06;;;;;;;15.32;9.88;;;11.40;42.20;;;;;;5122304;28;20019;-67
2022/03/09 10:01:32;;;;;;;14.45;10.05;;;11.50;42.30;;;;;;5122360;28;20323;-67
2022/03/09 10:03:58;;;;;;;14.27;9.55;;;11.50;42.30;;;;;;5121055;28;20062;-68
2022/03/09 10:06:24;;;;;;;15.57;10.05;;;11.50;42.30;;;;;;5122252;28;20030;-67
2022/03/09 10:09:19;;;;;;;14.40;8.88;;;11.60;42.20;;;;;;5122252;28;20028;-66
2022/03/09 10:11:52;;;;;;;15.10;9.38;;;11.60;42.20;;;;;;5099828;28;20341;-68
2022/03/09 10:14:50;;;;;;;17.67;9.63;;;11.60;42.10;;;;;;5122137;28;20011;-67
2022/03/09 10:17:21;;;;;;;16.73;9.30;;;11.70;42.10;;;;;;5122090;28;20023;-67
2022/03/09 10:19:52;;;;;;;16.23;10.35;;;11.70;42.10;;;;;;5121920;28;20471;-67
2022/03/09 10:22:45;;;;;;;15.32;9.13;;;11.70;42.10;;;;;;5121976;28;20016;-67
2022/03/09 10:25:10;;;;;;;14.55;8.95;;;11.80;42.10;;;;;;5118561;28;20023;-66
2022/03/09 10:27:46;;;;;;;15.45;10.05;;;;;;;;;;5120538;28;20034;-68
2022/03/09 10:30:17;;;;;;;15.18;9.50;;;12.00;53.10;;;;;;5121734;28;20024;-68
2022/03/09 10:32:50;;;;;;;15.80;9.23;;;12.00;41.90;;;;;;5121809;27;20019;-66
2022/03/09 10:35:19;;;;;;;14.93;10.00;;;12.00;41.90;;;;;;5120498;28;20033;-66
2022/03/09 10:37:47;;;;;;;12.70;8.65;;;12.00;41.80;;;;;;5121572;28;20038;-65
2022/03/09 10:40:19;;;;;;;13.88;8.85;;;12.00;41.80;;;;;;5121261;28;20328;-67
2022/03/09 10:42:47;;;;;;;11.82;8.60;;;12.00;41.80;;;;;;5120616;28;20094;-66
2022/03/09 10:45:17;;;;;;;16.50;9.65;;;12.10;41.90;;;;;;5121433;28;20092;-67
2022/03/09 10:47:45;;;;;;;14.07;8.55;;;12.10;41.80;;;;;;5121506;28;20019;-66
2022/03/09 10:50:28;;;;;;;13.30;8.63;;;12.10;41.80;;;;;;5121456;28;20023;-66
2022/03/09 10:53:01;;;;;;;12.98;8.63;;;12.10;41.80;;;;;;5121374;28;20024;-66
2022/03/09 10:55:31;;;;;;;14.23;8.70;;;12.10;41.70;;;;;;5121404;28;20108;-67
2022/03/09 10:58:17;;;;;;;13.55;8.45;;;12.10;41.80;;;;;;5120767;28;20051;-66
2022/03/09 11:00:54;;;;;;;14.77;9.10;;;12.20;41.90;;;;;;5121177;28;20034;-66
2022/03/09 11:03:26;;;;;;;14.93;9.27;;;12.20;42.50;;;;;;5121248;28;20328;-68
2022/03/09 11:05:59;;;;;;;15.23;8.57;;;12.10;41.90;;;;;;5121262;28;20011;-66
2022/03/09 11:08:34;;;;;;;13.43;8.70;;;12.20;41.90;;;;;;5121096;28;20213;-66
2022/03/09 11:11:00;;;;;;;15.27;8.68;;;12.20;41.90;;;;;;5121231;28;20091;-66
2022/03/09 11:13:29;;;;;;;11.82;8.52;;;12.20;41.80;;;;;;5121049;28;20081;-66
2022/03/09 11:15:54;;;;;;;11.98;9.07;;;12.20;41.90;;;;;;5120953;28;20028;-65
2022/03/09 11:18:24;;;;;;;13.52;9.10;;;12.20;42.00;;;;;;5120997;28;20019;-67
2022/03/09 11:20:52;;;;;;;11.13;8.13;;;12.20;42.00;;;;;;5120915;28;20112;-68
2022/03/09 11:23:19;;;;;;;12.35;8.88;;;12.20;42.00;;;;;;5120955;28;20065;-67
2022/03/09 11:25:53;;;;;;;12.32;8.30;;;12.20;42.00;;;;;;5119558;28;20024;-66
2022/03/09 11:28:25;;;;;;;12.00;8.05;;;12.30;42.10;;;;;;5120892;28;20030;-67
2022/03/09 11:30:56;;;;;;;12.63;8.23;;;12.30;42.10;;;;;;5120813;28;20026;-66
2022/03/09 11:33:54;;;;;;;13.60;8.88;;;12.30;42.10;;;;;;5120788;28;20393;-68
2022/03/09 11:36:29;;;;;;;13.57;8.48;;;12.30;42.10;;;;;;5075666;28;20043;-67
2022/03/09 11:38:55;;;;;;;13.77;8.82;;;12.30;42.20;;;;;;5119273;28;20035;-67
2022/03/09 11:41:28;;;;;;;13.65;8.05;;;12.30;42.30;;;;;;5120740;28;20285;-68
2022/03/09 11:44:14;;;;;;;13.98;8.77;;;12.30;42.30;;;;;;5120712;28;20075;-67
2022/03/09 11:47:00;;;;;;;12.20;7.43;;;12.30;42.30;;;;;;5120623;28;20023;-66
2022/03/09 11:49:49;;;;;;;12.05;7.63;;;12.30;42.30;;;;;;5120617;28;20019;-67
2022/03/09 11:52:26;;;;;;;13.00;7.80;;;12.30;42.30;;;;;;5120606;28;20184;-67
2022/03/09 11:55:00;;;;;;;12.02;8.15;;;12.30;42.20;;;;;;5119387;28;20023;-67
2022/03/09 11:58:03;;;;;;;12.55;7.97;;;12.30;42.30;;;;;;5119311;28;20020;-67
2022/03/09 12:00:29;;;;;;;12.52;7.47;;;12.40;42.40;;;;;;5120475;28;20324;-67
2022/03/09 12:02:56;;;;;;;11.07;7.45;;;12.40;42.50;;;;;;5119194;28;20024;-65
2022/03/09 12:05:28;;;;;;;10.80;7.53;;;12.40;42.50;;;;;;5120473;28;20027;-66
2022/03/09 12:07:54;;;;;;;13.65;7.35;;;12.40;42.60;;;;;;5120445;28;20079;-65
2022/03/09 12:10:39;;;;;;;12.15;7.40;;;12.40;42.60;;;;;;5124467;28;20031;-66
2022/03/09 12:13:12;;;;;;;10.55;7.50;;;12.40;42.60;;;;;;5123205;28;20058;-66
2022/03/09 12:16:06;;;;;;;11.40;7.30;;;12.40;42.60;;;;;;5124468;28;20334;-66
2022/03/09 12:18:40;;;;;;;12.65;8.50;;;12.40;42.70;;;;;;5124353;28;20027;-66
2022/03/09 12:21:07;;;;;;;11.75;7.75;;;12.40;42.60;;;;;;5124403;28;20015;-67
2022/03/09 12:23:34;;;;;;;10.82;7.03;;;12.40;42.60;;;;;;5124303;28;20294;-67
2022/03/09 12:26:01;;;;;;;10.77;7.18;;;12.40;42.70;;;;;;5124274;28;20050;-65
2022/03/09 12:28:33;;;;;;;11.27;6.88;;;12.40;42.70;;;;;;5124252;28;20030;-67
2022/03/09 12:31:19;;;;;;;10.02;7.18;;;12.40;42.80;;;;;;5124192;28;20031;-67
2022/03/09 12:33:49;;;;;;;10.50;7.25;;;12.40;42.70;;;;;;5124107;28;20024;-66
2022/03/09 12:36:16;;;;;;;11.43;7.50;;;12.40;42.80;;;;;;5123978;28;20023;-66
2022/03/09 12:38:51;;;;;;;10.40;6.82;;;12.40;42.80;;;;;;5123873;28;20030;-67